Portada
METAR-TAF:

METAR-TAF

Aeroports :

Angers, França

latitud: 47-33-37N, longitud: 000-18-44W, altitud: 59 m

Observació

L'informe es va fer fa 28 minuts, a les 01:00 UTC
Vent 3 kt del Oest, variant entre Oest/Sud-Oest i Oest/Nord-Oest
Temperatura 17°C
Humitat 88%
Pressió 1012 hPa
Visibilitat 10 km o més
sense núvols per sota de 1500 mi sense presència de cumulonimbus.

METAR: LFJR 200100Z AUTO 26003KT 240V300 CAVOK 17/15 Q1012

Hora: 03:28 (01:28 UTC)


TAF: manca

Observacions i pronòstics meteorològics de més de 4000 aeroports (METAR i TAF).

Les estacions disponibles són els punts grocs i vermells al mapa.

Posi el ratolí al punt desitjat per veure el nom de l'estació.

Feu clic per veure les observacions i els pronòstics meteorològics.

Per canviar el mapa: feu clic els botons verds amb una creu de color negre per apropar; al botó verd amb un guió per allunyar la imatge; o en les fletxes verdes per a mapes adjacents.


METAR-TAF: